Nico Rodriguez

Recruteur en chef - Lugano
25 Sept 2027
Samedi
Processus

Personnalité

Adaptabilité (17) Ambition (2) Controverse (3) Loyauté (4) Pression (19) Professionnalisme (4) Sportivité (15) Tempérament (7)

Profil

Style d'entraînement Démocratique
Diplôme Continental C
Détermination 8
Gestion des joueurs 12
Motivation 7
Discipline 9
Satisfaction professionnelle
99%
Fatigue
0%
Rôle Recruteur en chef
Salaire 77.6K p/s
Contrat 14.03.2028

Performance

Comportement Bon
Efficacité de l'entraînement
32%
Développement des joueurs
30%
Prévention des blessures
50%
Mise en place tactique
20%

Événements récents

A participé à une réunion de recrutement maintenant
A participé à une réunion de recrutement 7j
A recommandé une cible de transfert 7j
A recommandé une cible de transfert 7j
A observé un match 7j
A recommandé une cible de transfert 14j
A recommandé une cible de transfert 14j
A observé un match 14j

Suivi en cours

96
Joueur Club Statut Capacité Confiance Observé Dernière observation Dernier vote
Oliver Fischer Borussia Dortmund Actif 94 / 93 40% 1 26.07.2027 -
Christos Mouzakitis Hull City Actif 139 / 147 40% 4 20.07.2027 -
Mattia Rutigliano Pro Vercelli Actif 92 / 107 40% 1 20.07.2027 -
Tim Schnitzer FC Augsburg Actif 104 / 101 40% 1 12.07.2027 -
Jobe Bellingham Borussia Dortmund Actif 150 / 135 40% 1 12.07.2027 -
Patrick Berg Borussia Mönchengladbach Actif 141 / 141 62% 1 01.06.2027 Approuver
Caio Vidal FC Copenhagen Négociation 128 / 129 63% 1 01.06.2027 -
Sascha Britschgi Catanzaro Actif 125 / 119 40% 1 31.05.2027 -
Riley Owen Wycombe Wanderers Actif 105 / 100 40% 1 29.05.2027 -
Caleb Yirenkyi Coventry City Actif 133 / 151 40% 1 29.05.2027 -
Karim Coulibaly RC Strasbourg Actif 127 / 119 40% 2 27.05.2027 -
Sam Curtis Swindon Town Actif 112 / 108 40% 1 27.05.2027 -
Tiago Freitas Benfica Actif 103 / 121 40% 1 26.05.2027 -
Davide Bartesaghi AC Milan Actif 121 / 134 40% 1 23.05.2027 -
Leandro Martins Benfica Actif 93 / 104 40% 1 23.05.2027 -
Fayssal Harchaoui Köln Actif 95 / 108 40% 2 20.05.2027 -
Andrik Markgraf Union Berlin Actif 107 / 104 40% 1 18.05.2027 -
Noël Aséko Eintracht Frankfurt Actif 115 / 132 40% 2 17.05.2027 -
Joane Gadou Köln Actif 132 / 131 40% 2 17.05.2027 -
Leonardo Mendicino Bari Actif 111 / 124 40% 3 16.05.2027 -
Jonathan De Irastorza Levante Actif 120 / 123 40% 1 15.05.2027 -
Taras Mykhavko Dynamo Kyiv Actif 120 / 122 40% 2 13.05.2027 -
Abraham Paintsil Hasaacas Actif 69 / 82 40% 2 13.05.2027 -
Martin Wober Mattersburg Actif 92 / 116 40% 1 12.05.2027 -
Fabio Chiarodia Borussia Mönchengladbach Actif 127 / 118 40% 2 11.05.2027 -
Pietro Reggiori Pro Patria Actif 88 / 98 40% 2 03.05.2027 -
Gladson Sulemana Liberty Professionals Actif 89 / 93 40% 2 20.04.2027 -
Gonçalo Oliveira Benfica Actif 116 / 120 40% 1 20.04.2027 -
Riquelme Thompson-Jones Shrewsbury Town Actif 99 / 112 40% 2 19.04.2027 -
Jofre Torrents Ajax Actif 133 / 134 40% 1 08.04.2027 -
Cenny Neumann Köln Actif 99 / 106 40% 1 07.04.2027 -
Philipp Maybach Hamburger SV Actif 116 / 112 40% 1 07.04.2027 -
Lucas Jetten Cambuur Actif 106 / 121 40% 1 05.04.2027 -
Daniel Kelly Derby County Actif 99 / 113 40% 1 05.04.2027 -
Tyrell Malacia Derby County Actif 134 / 134 40% 2 18.01.2027 -
Aleksa Terzić Frosinone Actif 128 / 132 40% 1 18.01.2027 -
Anel Ahmedhodžić Burnley Actif 134 / 145 40% 1 16.01.2027 -
Serge-Philippe Raux-Yao Rapid Wien Actif 115 / 137 40% 1 15.01.2027 -
Christian Krasnodar Actif 132 / 148 40% 3 13.01.2027 -
Bosun Lawal Stoke City Actif 131 / 131 40% 2 12.01.2027 -
Bobby Thomas Coventry City Actif 137 / 124 40% 1 12.01.2027 -
Tom Krauß Köln Actif 120 / 140 40% 1 11.01.2027 -
Japhet Tanganga Sheffield United Actif 133 / 127 40% 1 10.01.2027 -
Edoardo Bove Watford Actif 143 / 131 40% 1 09.01.2027 -
Odilon Kossounou Atalanta Actif 142 / 135 40% 1 07.01.2027 -
Rubens Dinamo Moscow Actif 143 / 145 40% 1 07.01.2027 -
Rico Lewis Manchester City Actif 152 / 141 40% 1 02.01.2027 -
Thulani Billiat Utrecht Négociation 136 / 136 61% 1 01.01.2027 Approuver
Adrian Dragusin CFR Cluj Négociation 141 / 142 63% 1 01.01.2027 Approuver
Mao Hosoya Manchester City Négociation 134 / 135 67% 1 01.01.2027 -
Xavier Biscayzacú Sporting CP Actif 127 / 130 40% 1 30.12.2026 -
Neco Williams Nottingham Forest Actif 134 / 146 40% 1 27.12.2026 -
Finn Azaz Southampton Actif 142 / 116 40% 1 26.12.2026 -
Julian von Moos Grasshopper Actif 132 / 128 40% 1 26.12.2026 -
Joe Gelhardt Hull City Actif 125 / 122 40% 1 25.12.2026 -
Jovon Makama Norwich City Actif 135 / 131 40% 1 25.12.2026 -
Tobias Gulliksen Rapid Wien Actif 131 / 122 40% 3 24.12.2026 -
Max Johnston Derby County Actif 122 / 123 40% 2 23.12.2026 -
Maurits Kjærgaard Red Bull Salzburg Actif 137 / 129 40% 1 17.12.2026 -
Juan-José Perea Zurich Actif 113 / 133 40% 1 16.12.2026 -
Jack Rudoni Coventry City Actif 139 / 122 40% 1 16.12.2026 -
Alex Luna Instituto Actif 119 / 131 40% 1 14.12.2026 -
Relebohile Mofokeng Orlando Pirates Actif 107 / 131 40% 1 14.12.2026 -
Loum Tchaouna Coventry City Actif 144 / 134 40% 1 13.12.2026 -
Tommy Conway Middlesbrough Actif 143 / 134 40% 1 13.12.2026 -
Rodrigo Ribeiro Werder Bremen Actif 120 / 138 40% 1 13.12.2026 -
Aljoscha Kemlein Union Berlin Actif 114 / 141 40% 2 11.12.2026 -
Zeki Amdouni Burnley Actif 144 / 119 40% 2 08.12.2026 -
Antonio Verinac St. Gallen Actif 89 / 107 40% 1 07.12.2026 -
Donat Rrudhani Sion Actif 106 / 106 40% 2 05.12.2026 -
Claudy M'Buyi Rapid Wien Actif 126 / 124 40% 2 03.12.2026 -
Alessio Zerbin Frosinone Actif 143 / 126 40% 1 03.12.2026 -
Lee Tae-Suk Austria Wien Actif 122 / 121 40% 1 02.12.2026 -
Franck Surdez Sion Actif 116 / 119 40% 1 24.11.2026 -
Nils Reichmuth Thun Actif 122 / 129 40% 1 23.11.2026 -
Fraser Murray Wigan Athletic Actif 117 / 121 40% 1 23.11.2026 -
Mika Walther RB Leipzig Actif 94 / 96 40% 1 22.11.2026 -
Philipp Schulz Mainz 05 Actif 108 / 91 40% 1 22.11.2026 -
El Hadji Malick Diouf Brentford Actif 141 / 150 40% 1 19.11.2026 -
Reda Khadra Qarabag Actif 153 / 116 40% 1 11.11.2026 -
Philip Otele Basel Actif 118 / 121 40% 1 09.11.2026 -
Max Finkgräfe RB Leipzig Actif 132 / 125 40% 1 08.11.2026 -
Philippe Keny Zurich Actif 108 / 117 48% 2 06.11.2026 -
Bendegúz Bolla Rapid Wien Actif 135 / 136 40% 1 06.11.2026 -
Jordy Makengo SC Freiburg Actif 118 / 121 40% 1 04.11.2026 -
Matthias Seidl Rapid Wien Actif 113 / 135 40% 2 02.11.2026 -
Alan Virginius Young Boys Actif 124 / 129 40% 1 02.11.2026 -
Gabriel Pirani San Diego Football Club Actif 121 / 124 40% 1 19.10.2026 -
Camilo Durán Bloemfontein Celtic Actif 131 / 120 40% 1 14.10.2026 -
Kelvin Yeboah Minnesota United FC Actif 105 / 137 40% 1 13.10.2026 -
Baltazar Sion Actif 113 / 105 40% 1 08.10.2026 -
Joaquín Pereyra Minnesota United FC Actif 151 / 124 40% 1 08.10.2026 -
Philipp Alaba Austria Wien Actif 126 / 124 40% 1 06.10.2026 -
Frans Krätzig Red Bull Salzburg Actif 114 / 121 40% 1 06.10.2026 -
Bledian Krasniqi Zurich Actif 128 / 129 40% 1 05.10.2026 -
Théo Berdayes Sion Actif 100 / 120 48% 1 24.08.2026 -